createdAt,value
2019-01-26T00:00:30.259Z,2.20
2019-01-26T00:02:56.467Z,2.30
2019-01-26T00:05:22.725Z,2.30
2019-01-26T00:07:50.400Z,2.30
2019-01-26T00:10:16.681Z,2.30
2019-01-26T00:12:42.869Z,2.30
2019-01-26T00:15:10.057Z,2.20
2019-01-26T00:17:36.280Z,2.20
2019-01-26T00:20:08.551Z,2.20
2019-01-26T00:22:34.719Z,2.20
2019-01-26T00:25:01.514Z,2.20
2019-01-26T00:27:27.646Z,2.20
2019-01-26T00:29:53.839Z,2.20
2019-01-26T00:32:20.079Z,2.20
2019-01-26T00:34:46.343Z,2.10
2019-01-26T00:37:12.536Z,2.10
2019-01-26T00:39:38.964Z,2.20
2019-01-26T00:42:05.134Z,2.10
2019-01-26T00:44:31.326Z,2.20
2019-01-26T00:46:57.515Z,2.10
2019-01-26T00:49:23.707Z,2.20
2019-01-26T00:51:49.871Z,2.20
2019-01-26T00:54:16.067Z,2.20
2019-01-26T00:56:42.259Z,2.20
2019-01-26T00:59:08.524Z,2.20
2019-01-26T01:01:34.818Z,2.20
2019-01-26T01:04:01.014Z,2.30
2019-01-26T01:06:27.189Z,2.30
2019-01-26T01:08:53.396Z,2.30
2019-01-26T01:11:19.570Z,2.30
2019-01-26T01:13:46.164Z,2.40
2019-01-26T01:16:12.431Z,2.40
2019-01-26T01:18:38.607Z,2.40
2019-01-26T01:21:04.806Z,2.50
2019-01-26T01:23:30.970Z,2.50
2019-01-26T01:25:57.140Z,2.50
2019-01-26T01:28:28.475Z,2.50
2019-01-26T01:30:54.688Z,2.50
2019-01-26T01:33:21.145Z,2.40
2019-01-26T01:35:47.392Z,2.40
2019-01-26T01:38:13.720Z,2.40
2019-01-26T01:40:40.270Z,2.30
2019-01-26T01:43:06.477Z,2.30
2019-01-26T01:45:32.879Z,2.20
2019-01-26T01:47:59.039Z,2.20
2019-01-26T01:50:25.216Z,2.20
2019-01-26T01:52:51.435Z,2.20
2019-01-26T01:55:17.721Z,2.10
2019-01-26T01:57:44.032Z,2.10
2019-01-26T02:00:20.938Z,2.10
2019-01-26T02:02:47.129Z,2.10
2019-01-26T02:05:13.745Z,2.00
2019-01-26T02:07:40.309Z,2.00
2019-01-26T02:10:10.946Z,2.00
2019-01-26T02:12:37.103Z,2.00
2019-01-26T02:15:06.412Z,2.00
2019-01-26T02:17:32.586Z,1.90
2019-01-26T02:19:58.761Z,1.90
2019-01-26T02:22:25.062Z,1.90
2019-01-26T02:24:51.228Z,1.90
2019-01-26T02:27:17.435Z,1.90
2019-01-26T02:29:43.592Z,1.90
2019-01-26T02:32:09.810Z,1.90
2019-01-26T02:34:35.992Z,1.90
2019-01-26T02:37:02.193Z,1.90
2019-01-26T02:39:28.365Z,1.90
2019-01-26T02:41:54.565Z,1.90
2019-01-26T02:44:20.731Z,1.90
2019-01-26T02:46:46.961Z,2.00
2019-01-26T02:49:13.152Z,2.00
2019-01-26T02:51:39.357Z,2.00
2019-01-26T02:54:05.564Z,2.00
2019-01-26T02:56:32.076Z,2.00
2019-01-26T02:58:58.264Z,2.10
2019-01-26T03:01:24.435Z,2.10
2019-01-26T03:03:50.701Z,2.10
2019-01-26T03:06:16.882Z,2.20
2019-01-26T03:08:43.073Z,2.30
2019-01-26T03:11:09.305Z,2.30
2019-01-26T03:13:37.763Z,2.40
2019-01-26T03:16:04.344Z,2.50
2019-01-26T03:18:30.601Z,2.50
2019-01-26T03:20:56.760Z,2.60
2019-01-26T03:23:23.061Z,2.60
2019-01-26T03:25:49.250Z,2.70
2019-01-26T03:28:15.439Z,2.70
2019-01-26T03:30:41.626Z,2.80
2019-01-26T03:33:07.819Z,2.80
2019-01-26T03:35:34.039Z,2.90
2019-01-26T03:38:00.234Z,2.90
2019-01-26T03:40:26.422Z,2.90
2019-01-26T03:42:52.655Z,2.90
2019-01-26T03:45:19.580Z,3.00
2019-01-26T03:47:46.475Z,2.90
2019-01-26T03:50:14.639Z,2.90
2019-01-26T03:52:40.794Z,2.90
2019-01-26T03:55:11.802Z,2.80
2019-01-26T03:57:38.210Z,2.70
2019-01-26T04:00:10.175Z,2.70
2019-01-26T04:02:36.670Z,2.70
2019-01-26T04:05:05.767Z,2.60
2019-01-26T04:07:31.991Z,2.60
2019-01-26T04:09:58.217Z,2.60
2019-01-26T04:12:24.653Z,2.60
2019-01-26T04:14:51.141Z,2.50
2019-01-26T04:17:21.867Z,2.60
2019-01-26T04:19:45.638Z,2.50
2019-01-26T04:22:11.813Z,2.50
2019-01-26T04:24:38.304Z,2.50
2019-01-26T04:27:04.726Z,2.50
2019-01-26T04:29:30.920Z,2.50
2019-01-26T04:31:57.450Z,2.50
2019-01-26T04:34:23.643Z,2.50
2019-01-26T04:36:49.902Z,2.50
2019-01-26T04:39:16.131Z,2.50
2019-01-26T04:41:42.294Z,2.50
2019-01-26T04:44:08.508Z,2.50
2019-01-26T04:46:34.878Z,2.50
2019-01-26T04:49:01.068Z,2.50
2019-01-26T04:51:27.246Z,2.60
2019-01-26T04:53:53.449Z,2.50
2019-01-26T04:56:19.602Z,2.50
2019-01-26T04:58:45.781Z,2.60
2019-01-26T05:01:12.273Z,2.60
2019-01-26T05:03:38.575Z,2.60
2019-01-26T05:06:04.780Z,2.60
2019-01-26T05:08:31.063Z,2.70
2019-01-26T05:10:57.226Z,2.70
2019-01-26T05:13:23.449Z,2.80
2019-01-26T05:15:49.619Z,2.80
2019-01-26T05:18:16.448Z,2.90
2019-01-26T05:20:42.652Z,2.90
2019-01-26T05:23:09.285Z,3.00
2019-01-26T05:25:35.712Z,3.00
2019-01-26T05:28:02.433Z,3.10
2019-01-26T05:30:28.692Z,3.20
2019-01-26T05:32:54.851Z,3.20
2019-01-26T05:35:21.487Z,3.20
2019-01-26T05:37:47.692Z,3.30
2019-01-26T05:40:16.573Z,3.30
2019-01-26T05:42:43.357Z,3.30
2019-01-26T05:45:14.247Z,3.40
2019-01-26T05:47:48.088Z,3.40
2019-01-26T05:50:16.212Z,3.40
2019-01-26T05:52:42.395Z,3.40
2019-01-26T05:55:08.887Z,3.50
2019-01-26T05:57:35.183Z,3.50
2019-01-26T06:00:03.083Z,3.50
2019-01-26T06:02:29.254Z,3.50
2019-01-26T06:04:55.485Z,3.60
2019-01-26T06:07:21.660Z,3.60
2019-01-26T06:09:48.111Z,3.60
2019-01-26T06:12:14.297Z,3.60
2019-01-26T06:14:40.885Z,3.70
2019-01-26T06:17:07.071Z,3.60
2019-01-26T06:19:33.825Z,3.70
2019-01-26T06:22:00.114Z,3.70
2019-01-26T06:24:33.025Z,3.70
2019-01-26T06:26:59.290Z,3.70
2019-01-26T06:29:25.566Z,3.70
2019-01-26T06:31:51.875Z,3.70
2019-01-26T06:34:18.037Z,3.70
2019-01-26T06:36:44.243Z,3.70
2019-01-26T06:39:10.732Z,3.70
2019-01-26T06:41:36.931Z,3.80
2019-01-26T06:44:03.209Z,3.70
2019-01-26T06:46:29.384Z,3.80
2019-01-26T06:48:56.947Z,3.80
2019-01-26T06:51:23.171Z,3.80
2019-01-26T06:53:49.349Z,3.90
2019-01-26T06:56:15.561Z,3.90
2019-01-26T06:58:41.754Z,3.90
2019-01-26T07:01:07.940Z,3.90
2019-01-26T07:03:34.200Z,4.00
2019-01-26T07:06:02.335Z,4.00
2019-01-26T07:08:28.533Z,4.00
2019-01-26T07:10:54.737Z,4.00
2019-01-26T07:13:20.937Z,4.10
2019-01-26T07:15:47.184Z,4.10
2019-01-26T07:18:13.359Z,4.10
2019-01-26T07:20:39.650Z,4.20
2019-01-26T07:23:06.031Z,4.20
2019-01-26T07:25:32.515Z,4.20
2019-01-26T07:27:58.702Z,4.20
2019-01-26T07:30:25.833Z,4.30
2019-01-26T07:32:52.537Z,4.30
2019-01-26T07:35:18.786Z,4.30
2019-01-26T07:37:45.068Z,4.30
2019-01-26T07:40:16.714Z,4.30
2019-01-26T07:42:43.111Z,4.40
2019-01-26T07:45:11.526Z,4.40
2019-01-26T07:47:37.705Z,4.40
2019-01-26T07:50:09.069Z,4.40
2019-01-26T07:52:35.224Z,4.40
2019-01-26T07:55:01.438Z,4.40
2019-01-26T07:57:27.657Z,4.40
2019-01-26T07:59:55.184Z,4.40
2019-01-26T08:02:21.502Z,4.40
2019-01-26T08:04:47.708Z,4.40
2019-01-26T08:07:14.180Z,4.40
2019-01-26T08:09:40.398Z,4.40
2019-01-26T08:12:06.596Z,4.40
2019-01-26T08:14:32.833Z,4.40
2019-01-26T08:17:01.333Z,4.40
2019-01-26T08:19:27.538Z,4.40
2019-01-26T08:21:53.831Z,4.40
2019-01-26T08:24:20.037Z,4.40
2019-01-26T08:26:46.266Z,4.40
2019-01-26T08:29:12.460Z,4.30
2019-01-26T08:31:38.751Z,4.30
2019-01-26T08:34:05.032Z,4.30
2019-01-26T08:36:31.395Z,4.30
2019-01-26T08:38:57.557Z,4.30
2019-01-26T08:41:23.795Z,4.20
2019-01-26T08:43:54.389Z,4.20
2019-01-26T08:46:23.986Z,4.20
2019-01-26T08:48:50.824Z,4.20
2019-01-26T08:51:17.609Z,4.20
2019-01-26T08:53:46.373Z,4.20
2019-01-26T08:56:12.720Z,4.20
2019-01-26T08:58:38.991Z,4.20
2019-01-26T09:01:05.361Z,4.20
2019-01-26T09:03:33.636Z,4.20
2019-01-26T09:06:02.124Z,4.30
2019-01-26T09:08:28.471Z,4.30
2019-01-26T09:10:54.885Z,4.30
2019-01-26T09:13:21.120Z,4.30
2019-01-26T09:15:47.457Z,4.30
2019-01-26T09:18:13.682Z,4.30
2019-01-26T09:20:39.874Z,4.40
2019-01-26T09:23:06.137Z,4.40
2019-01-26T09:25:32.333Z,4.40
2019-01-26T09:27:58.812Z,4.40
2019-01-26T09:30:25.008Z,4.40
2019-01-26T09:32:51.289Z,4.40
2019-01-26T09:35:17.865Z,4.40
2019-01-26T09:37:45.225Z,4.40
2019-01-26T09:40:21.115Z,4.50
2019-01-26T09:42:47.383Z,4.50
2019-01-26T09:45:18.705Z,4.50
2019-01-26T09:47:45.490Z,4.50
2019-01-26T09:50:14.772Z,4.50
2019-01-26T09:52:41.872Z,4.50
2019-01-26T09:55:15.417Z,4.60
2019-01-26T09:57:41.944Z,4.60
2019-01-26T10:00:15.684Z,4.70
2019-01-26T10:02:41.970Z,4.70
2019-01-26T10:05:10.028Z,4.70
2019-01-26T10:07:38.774Z,4.70
2019-01-26T10:10:10.467Z,4.80
2019-01-26T10:12:37.923Z,4.80
2019-01-26T10:15:15.697Z,4.80
2019-01-26T10:17:46.046Z,4.90
2019-01-26T10:20:23.804Z,4.90
2019-01-26T10:22:50.007Z,4.90
2019-01-26T10:25:19.556Z,4.90
2019-01-26T10:27:45.887Z,4.90
2019-01-26T10:30:22.297Z,4.90
2019-01-26T10:32:49.130Z,4.90
2019-01-26T10:35:15.735Z,4.90
2019-01-26T10:37:45.450Z,4.90
2019-01-26T10:40:13.669Z,4.90
2019-01-26T10:42:39.940Z,5.00
2019-01-26T10:45:08.036Z,5.00
2019-01-26T10:47:34.255Z,5.00
2019-01-26T10:50:00.489Z,5.00
2019-01-26T10:52:27.039Z,5.00
2019-01-26T10:54:53.496Z,5.00
2019-01-26T10:57:20.038Z,5.10
2019-01-26T10:59:46.302Z,5.00
2019-01-26T11:02:12.635Z,5.00
2019-01-26T11:04:38.921Z,5.00
2019-01-26T11:07:05.110Z,5.10
2019-01-26T11:09:31.365Z,5.10
2019-01-26T11:11:57.567Z,5.10
2019-01-26T11:14:23.795Z,5.10
2019-01-26T11:16:49.991Z,5.10
2019-01-26T11:19:16.483Z,5.10
2019-01-26T11:21:42.681Z,5.20
2019-01-26T11:24:08.949Z,5.20
2019-01-26T11:26:35.120Z,5.20
2019-01-26T11:29:01.481Z,5.20
2019-01-26T11:31:28.299Z,5.20
2019-01-26T11:33:54.620Z,5.30
2019-01-26T11:36:20.758Z,5.30
2019-01-26T11:38:49.858Z,5.30
2019-01-26T11:41:16.131Z,5.30
2019-01-26T11:43:42.603Z,5.40
2019-01-26T11:46:19.400Z,5.40
2019-01-26T11:48:46.601Z,5.40
2019-01-26T11:51:20.592Z,5.50
2019-01-26T11:53:50.887Z,5.50
2019-01-26T11:56:31.162Z,5.60
2019-01-26T11:58:58.892Z,5.60
2019-01-26T12:01:45.211Z,5.70
2019-01-26T12:04:34.539Z,5.70
2019-01-26T12:07:02.634Z,5.80
2019-01-26T12:09:28.852Z,5.80
2019-01-26T12:11:55.081Z,5.90
2019-01-26T12:14:21.639Z,5.90
2019-01-26T12:16:47.844Z,6.00
2019-01-26T12:19:14.351Z,6.00
2019-01-26T12:21:41.896Z,6.10
2019-01-26T12:24:08.100Z,6.10
2019-01-26T12:26:35.557Z,6.10
2019-01-26T12:29:03.498Z,6.10
2019-01-26T12:31:29.786Z,6.10
2019-01-26T12:33:56.024Z,6.10
2019-01-26T12:36:22.242Z,6.10
2019-01-26T12:38:48.491Z,6.10
2019-01-26T12:41:14.627Z,6.10
2019-01-26T12:43:40.964Z,6.10
2019-01-26T12:46:07.161Z,6.10
2019-01-26T12:48:33.512Z,6.10
2019-01-26T12:50:59.768Z,6.10
2019-01-26T12:53:25.931Z,6.10
2019-01-26T12:55:52.682Z,6.10
2019-01-26T12:58:18.960Z,6.10
2019-01-26T13:00:45.139Z,6.20
2019-01-26T13:03:11.436Z,6.20
2019-01-26T13:05:37.659Z,6.20
2019-01-26T13:08:04.387Z,6.20
2019-01-26T13:10:48.657Z,6.20
2019-01-26T13:13:14.951Z,6.20
2019-01-26T13:15:41.250Z,6.30
2019-01-26T13:18:08.630Z,6.30
2019-01-26T13:20:34.872Z,6.30
2019-01-26T13:23:01.460Z,6.20
2019-01-26T13:25:27.668Z,6.20
2019-01-26T13:27:53.851Z,6.30
2019-01-26T13:30:22.803Z,6.20
2019-01-26T13:32:49.098Z,6.20
2019-01-26T13:35:15.623Z,6.20
2019-01-26T13:37:42.010Z,6.20
2019-01-26T13:40:16.157Z,6.20
2019-01-26T13:42:42.352Z,6.20
2019-01-26T13:45:12.702Z,6.20
2019-01-26T13:47:40.062Z,6.10
2019-01-26T13:50:08.272Z,6.10
2019-01-26T13:52:34.809Z,6.10
2019-01-26T13:55:01.036Z,6.10
2019-01-26T13:57:27.351Z,6.10
2019-01-26T13:59:53.619Z,6.10
2019-01-26T14:02:19.795Z,6.10
2019-01-26T14:04:46.033Z,6.10
2019-01-26T14:07:12.233Z,6.10
2019-01-26T14:09:38.462Z,6.10
2019-01-26T14:12:04.638Z,6.10
2019-01-26T14:14:31.389Z,6.10
2019-01-26T14:16:57.580Z,6.10
2019-01-26T14:19:23.800Z,6.10
2019-01-26T14:21:50.249Z,6.10
2019-01-26T14:24:16.465Z,6.10
2019-01-26T14:26:49.526Z,6.10
2019-01-26T14:29:10.759Z,6.10
2019-01-26T14:31:37.244Z,6.10
2019-01-26T14:34:03.465Z,6.20
2019-01-26T14:36:29.731Z,6.20
2019-01-26T14:38:55.914Z,6.20
2019-01-26T14:41:25.145Z,6.20
2019-01-26T14:43:51.331Z,6.20
2019-01-26T14:46:17.830Z,6.20
2019-01-26T14:48:44.020Z,6.20
2019-01-26T14:51:11.438Z,6.20
2019-01-26T14:53:37.988Z,6.20
2019-01-26T14:56:04.202Z,6.20
2019-01-26T14:58:30.807Z,6.20
2019-01-26T15:00:57.213Z,6.20
2019-01-26T15:03:23.375Z,6.20
2019-01-26T15:05:49.628Z,6.20
2019-01-26T15:08:16.916Z,6.20
2019-01-26T15:10:43.227Z,6.20
2019-01-26T15:13:09.386Z,6.20
2019-01-26T15:15:35.640Z,6.20
2019-01-26T15:18:02.008Z,6.20
2019-01-26T15:20:35.955Z,6.20
2019-01-26T15:23:04.298Z,6.20
2019-01-26T15:25:30.515Z,6.20
2019-01-26T15:27:56.671Z,6.20
2019-01-26T15:30:30.352Z,6.20
2019-01-26T15:32:56.814Z,6.20
2019-01-26T15:35:23.410Z,6.20
2019-01-26T15:37:49.803Z,6.20
2019-01-26T15:40:16.040Z,6.20
2019-01-26T15:42:42.246Z,6.20
2019-01-26T15:45:13.890Z,6.20
2019-01-26T15:47:40.058Z,6.20
2019-01-26T15:50:13.149Z,6.20
2019-01-26T15:52:38.341Z,6.20
2019-01-26T15:55:12.974Z,6.20
2019-01-26T15:57:39.179Z,6.20
2019-01-26T16:00:14.454Z,6.20
2019-01-26T16:02:40.703Z,6.20
2019-01-26T16:05:07.688Z,6.20
2019-01-26T16:07:33.943Z,6.30
2019-01-26T16:10:00.271Z,6.30
2019-01-26T16:12:26.468Z,6.30
2019-01-26T16:14:58.396Z,6.30
2019-01-26T16:17:24.603Z,6.30
2019-01-26T16:19:50.864Z,6.30
2019-01-26T16:22:24.579Z,6.30
2019-01-26T16:25:10.839Z,6.30
2019-01-26T16:27:37.131Z,6.30
2019-01-26T16:30:24.252Z,6.30
2019-01-26T16:32:50.496Z,6.30
2019-01-26T16:35:17.534Z,6.30
2019-01-26T16:37:51.050Z,6.30
2019-01-26T16:40:28.193Z,6.30
2019-01-26T16:42:54.501Z,6.30
2019-01-26T16:45:27.689Z,6.30
2019-01-26T16:47:54.607Z,6.30
2019-01-26T16:50:27.840Z,6.30
2019-01-26T16:52:54.355Z,6.30
2019-01-26T16:55:21.071Z,6.30
2019-01-26T16:57:47.266Z,6.30
2019-01-26T17:00:32.748Z,6.30
2019-01-26T17:02:59.280Z,6.30
2019-01-26T17:05:26.000Z,6.30
2019-01-26T17:07:52.461Z,6.40
2019-01-26T17:10:20.147Z,6.40
2019-01-26T17:12:46.377Z,6.40
2019-01-26T17:15:13.053Z,6.40
2019-01-26T17:17:39.303Z,6.40
2019-01-26T17:20:22.347Z,6.40
2019-01-26T17:22:48.584Z,6.40
2019-01-26T17:25:14.789Z,6.50
2019-01-26T17:27:41.015Z,6.50
2019-01-26T17:30:15.868Z,6.50
2019-01-26T17:32:42.429Z,6.50
2019-01-26T17:35:09.910Z,6.50
2019-01-26T17:37:36.160Z,6.50
2019-01-26T17:40:10.507Z,6.50
2019-01-26T17:42:36.748Z,6.50
2019-01-26T17:45:07.552Z,6.50
2019-01-26T17:47:34.028Z,6.60
2019-01-26T17:50:00.233Z,6.60
2019-01-26T17:52:26.473Z,6.60
2019-01-26T17:54:52.636Z,6.60
2019-01-26T17:57:18.864Z,6.60
2019-01-26T17:59:45.289Z,6.60
2019-01-26T18:02:11.967Z,6.60
2019-01-26T18:04:38.148Z,6.60
2019-01-26T18:07:07.133Z,6.60
2019-01-26T18:09:33.354Z,6.60
2019-01-26T18:11:59.958Z,6.70
2019-01-26T18:14:26.129Z,6.60
2019-01-26T18:16:52.489Z,6.60
2019-01-26T18:19:18.964Z,6.60
2019-01-26T18:21:45.117Z,6.60
2019-01-26T18:24:11.436Z,6.60
2019-01-26T18:26:37.883Z,6.60
2019-01-26T18:29:04.115Z,6.70
2019-01-26T18:31:30.354Z,6.60
2019-01-26T18:33:56.670Z,6.60
2019-01-26T18:36:22.879Z,6.60
2019-01-26T18:38:49.331Z,6.70
2019-01-26T18:41:15.541Z,6.70
2019-01-26T18:43:41.765Z,6.60
2019-01-26T18:46:07.938Z,6.70
2019-01-26T18:48:34.220Z,6.60
2019-01-26T18:51:00.379Z,6.60
2019-01-26T18:53:26.621Z,6.70
2019-01-26T18:55:52.805Z,6.70
2019-01-26T18:58:19.035Z,6.70
2019-01-26T19:00:46.625Z,6.70
2019-01-26T19:03:24.607Z,6.70
2019-01-26T19:05:54.481Z,6.70
2019-01-26T19:08:20.680Z,6.70
2019-01-26T19:10:47.504Z,6.70
2019-01-26T19:13:13.763Z,6.70
2019-01-26T19:15:39.936Z,6.70
2019-01-26T19:18:11.955Z,6.70
2019-01-26T19:20:38.142Z,6.70
2019-01-26T19:23:04.373Z,6.70
2019-01-26T19:25:30.605Z,6.80
2019-01-26T19:27:57.399Z,6.80
2019-01-26T19:30:23.971Z,6.70
2019-01-26T19:32:50.128Z,6.70
2019-01-26T19:35:16.463Z,6.70
2019-01-26T19:37:43.202Z,6.70
2019-01-26T19:40:19.691Z,6.70
2019-01-26T19:42:46.173Z,6.70
2019-01-26T19:45:19.501Z,6.70
2019-01-26T19:47:45.667Z,6.70
2019-01-26T19:50:15.999Z,6.70
2019-01-26T19:52:42.343Z,6.70
2019-01-26T19:55:09.278Z,6.70
2019-01-26T19:57:35.457Z,6.70
2019-01-26T20:00:08.042Z,6.70
2019-01-26T20:02:34.288Z,6.70
2019-01-26T20:05:00.517Z,6.70
2019-01-26T20:07:27.038Z,6.70
2019-01-26T20:09:53.361Z,6.70
2019-01-26T20:12:19.841Z,6.80
2019-01-26T20:14:46.365Z,6.80
2019-01-26T20:17:12.523Z,6.80
2019-01-26T20:19:38.799Z,6.90
2019-01-26T20:22:04.981Z,6.90
2019-01-26T20:24:31.231Z,6.90
2019-01-26T20:26:57.544Z,6.90
2019-01-26T20:29:23.826Z,6.90
2019-01-26T20:31:50.088Z,6.90
2019-01-26T20:34:16.512Z,6.90
2019-01-26T20:36:42.848Z,6.90
2019-01-26T20:39:09.060Z,7.00
2019-01-26T20:41:35.747Z,7.00
2019-01-26T20:44:02.055Z,7.00
2019-01-26T20:46:28.217Z,7.00
2019-01-26T20:48:54.471Z,7.00
2019-01-26T20:51:24.814Z,7.00
2019-01-26T20:53:48.794Z,7.00
2019-01-26T20:56:14.967Z,7.00
2019-01-26T20:58:41.387Z,7.00
2019-01-26T21:01:07.757Z,7.10
2019-01-26T21:03:34.276Z,7.10
2019-01-26T21:06:00.748Z,7.10
2019-01-26T21:08:27.225Z,7.10
2019-01-26T21:10:53.432Z,7.10
2019-01-26T21:13:19.619Z,7.10
2019-01-26T21:15:46.321Z,7.10
2019-01-26T21:18:12.548Z,7.10
2019-01-26T21:20:38.781Z,7.10
2019-01-26T21:23:05.039Z,7.20
2019-01-26T21:25:31.555Z,7.20
2019-01-26T21:27:57.771Z,7.20
2019-01-26T21:30:26.839Z,7.20
2019-01-26T21:32:53.546Z,7.20
2019-01-26T21:35:20.742Z,7.20
2019-01-26T21:37:46.958Z,7.20
2019-01-26T21:40:20.105Z,7.20
2019-01-26T21:42:46.479Z,7.20
2019-01-26T21:45:14.888Z,7.20
2019-01-26T21:47:41.088Z,7.30
2019-01-26T21:50:14.887Z,7.30
2019-01-26T21:52:41.412Z,7.30
2019-01-26T21:55:08.697Z,7.30
2019-01-26T21:57:34.858Z,7.30
2019-01-26T22:00:01.280Z,7.30
2019-01-26T22:02:27.793Z,7.30
2019-01-26T22:04:54.023Z,7.30
2019-01-26T22:07:20.486Z,7.30
2019-01-26T22:09:47.084Z,7.30
2019-01-26T22:12:13.254Z,7.30
2019-01-26T22:14:39.461Z,7.30
2019-01-26T22:17:05.648Z,7.30
2019-01-26T22:19:31.801Z,7.30
2019-01-26T22:21:58.014Z,7.30
2019-01-26T22:24:24.238Z,7.30
2019-01-26T22:26:50.388Z,7.40
2019-01-26T22:29:16.562Z,7.40
2019-01-26T22:31:43.074Z,7.40
2019-01-26T22:34:09.231Z,7.40
2019-01-26T22:36:35.428Z,7.40
2019-01-26T22:39:01.614Z,7.40
2019-01-26T22:41:27.841Z,7.40
2019-01-26T22:43:53.997Z,7.40
2019-01-26T22:46:20.210Z,7.40
2019-01-26T22:48:46.680Z,7.40
2019-01-26T22:51:12.911Z,7.50
2019-01-26T22:53:39.135Z,7.40
2019-01-26T22:56:05.425Z,7.50
2019-01-26T22:58:31.594Z,7.40
2019-01-26T23:01:04.010Z,7.40
2019-01-26T23:03:53.667Z,7.40
2019-01-26T23:06:46.283Z,7.40
2019-01-26T23:09:24.352Z,7.40
2019-01-26T23:12:10.866Z,7.40
2019-01-26T23:15:04.870Z,7.40
2019-01-26T23:17:51.363Z,7.40
2019-01-26T23:20:26.385Z,7.40
2019-01-26T23:23:29.240Z,7.40
2019-01-26T23:26:09.482Z,7.40
2019-01-26T23:28:47.300Z,7.40
2019-01-26T23:31:17.234Z,7.40
2019-01-26T23:33:44.530Z,7.40
2019-01-26T23:36:12.052Z,7.40
2019-01-26T23:38:38.320Z,7.40
2019-01-26T23:41:04.495Z,7.40
2019-01-26T23:43:30.680Z,7.40
2019-01-26T23:45:56.872Z,7.40
2019-01-26T23:48:23.076Z,7.40
2019-01-26T23:50:49.303Z,7.50
2019-01-26T23:53:15.493Z,7.50
2019-01-26T23:55:41.658Z,7.50
2019-01-26T23:58:07.859Z,7.50
